Fuengirola, Espanja

3. heinäkuuta 2015 klo 01:07 (CEST) (GMT +0200)
IMALAGAM6 | | Change Station
CLOSE
Current Station
Omat sääasemat
Location: Mijas, MALAGA
Korkeus: 997 ft
Lähimmät sääasemat

Kork 997 ft 36.60 °N, 4.63 °W | Updated 6 minutes ago

Clear
Selkeää
71.1 °F
Tuntuu kuin 77 °F
N
0.0
Tuuli Suunnaltaan vaihteleva Tuuli ilmansuunnasta Koillinen
Gusts 0.0 mph

Tänään
Korkea -- | Matala -- °F
--% Sateen mahd.
Eilen
Korkea -- | Matala -- °F
Precip. -- tuumaa
7:04 AM 9:40 PM
Täysikuu, 99% visible
Ilmanpaine 30.06 tuumaa
Näkyvyys -9999.0 mailia
Pilviä
Lämpötilaindeksi 77 °F
Kastepiste 52 °F
Ilmankosteus 51%
Sademäärä 0.00 tuumaa
Lumensyvyys Ei saatavilla
UV Ei saatavilla
Pollen Ei saatavilla
Ilmanlaatu Ei saatavilla
Flu Activity Ei saatavilla
METAR LEMG 022300Z 30004KT CAVOK 22/17 Q1018 NOSIG

More Conditions Fewer Conditions

Ilmanpaine 30.06 tuumaa
Näkyvyys -9999.0 mailia
Pilviä
Lämpötilaindeksi 77 °F
Kastepiste 52 °F
Ilmankosteus 51%
Sademäärä 0.00 tuumaa
Lumensyvyys Ei saatavilla
UV Ei saatavilla
Pollen Ei saatavilla
Ilmanlaatu Ei saatavilla
Flu Activity Ei saatavilla
METAR LEMG 022300Z 30004KT CAVOK 22/17 Q1018 NOSIG

More Conditions Fewer Conditions

10-Day Weather Forecast

×

Almanac

Tähtitiede

Jul. 03, 2015 Nousuaika Laskuaika
Valoisa aika
Porvarillinen hämärä
Nauttinen hämärä
Astronominen hämärä
Kuu
Näkyvän valon pituus
Päivän pituus
Tomorrow will be .
, % of the Moon is Illuminated

Tämän päivän ennätykset

Country Highs Country Lows

Community

WunderPhotos

Upload Photos

1,834,564 photos uploaded!

WunderBlogs® & News

Nearby

Ilmanlaatu

  Ilmanlaatu AQ Index Pollutant
Not available.

Lumensyvyys

Station Depth Korkeus

Maanjäristysaktiivisuus

Paikkakunta Distance Mag. Time & Date
Minimum magnitude displayed is 2.5.

Coastal Water Temperatures

Paikka Lämpötila

Stations

Lähimmät sääasemat

Aseman sijainti Lämpötila Tuulen hyytävyys Kastepiste Ilmankosteus Tuuli Precip. Kork Päivitetty Tyyppi